Time;durP1;ratioP1;P1;durP2;ratioP2;P2;SDS_P1;SDS_P2;PMS_P1;PMS_P2;Temp;Humidity;BMP_temperature;BMP_pressure;BME280_temperature;BME280_humidity;BME280_pressure;Samples;Min_cycle;Max_cycle;Signal;HPM_P1;HPM_P2
2023/04/01 00:01:43;;;;;;;5.68;4.20;;;;;;;13.16;50.66;63360.06;5030711;28;20222;-76
2023/04/01 00:04:10;;;;;;;7.10;4.35;;;;;;;13.03;51.61;63346.59;5037912;28;20206;-77
2023/04/01 00:06:36;;;;;;;5.25;3.80;;;;;;;12.93;51.61;63336.19;5050877;28;20221;-76
2023/04/01 00:09:04;;;;;;;6.38;4.30;;;;;;;12.51;54.03;63288.06;5031988;28;20237;-77
2023/04/01 00:11:31;;;;;;;11.90;5.43;;;;;;;12.44;55.19;63283.84;5030560;28;20581;-76
2023/04/01 00:13:59;;;;;;;7.70;4.35;;;;;;;12.19;57.47;63263.03;5030413;28;20246;-76
2023/04/01 00:16:26;;;;;;;10.43;5.43;;;;;;;11.97;58.74;63234.63;5035421;28;20198;-76
2023/04/01 00:18:53;;;;;;;10.40;4.65;;;;;;;11.82;60.06;63222.13;5047529;28;20218;-78
2023/04/01 00:21:22;;;;;;;9.27;4.88;;;;;;;11.66;61.81;63199.94;5050109;28;20490;-78
2023/04/01 00:23:49;;;;;;;8.43;5.20;;;;;;;11.66;62.85;63197.41;5046136;28;20203;-78
2023/04/01 00:26:18;;;;;;;7.63;4.47;;;;;;;11.60;62.01;63194.22;5033983;28;20366;-78
2023/04/01 00:28:46;;;;;;;7.85;4.63;;;;;;;11.29;63.64;63162.63;5047494;28;20206;-77
2023/04/01 00:31:15;;;;;;;5.25;3.97;;;;;;;11.37;63.11;63170.41;5047993;28;20202;-76
2023/04/01 00:33:43;;;;;;;5.55;3.72;;;;;;;11.24;63.47;63159.47;5041366;28;20213;-78
2023/04/01 00:36:11;;;;;;;6.45;3.58;;;;;;;11.16;63.79;63148.66;5039015;28;20213;-78
2023/04/01 00:38:39;;;;;;;4.72;3.15;;;;;;;11.17;64.21;63152.22;5026620;28;20257;-78
2023/04/01 00:41:06;;;;;;;9.88;3.80;;;;;;;11.14;64.75;63147.09;5045285;28;20225;-77
2023/04/01 00:43:34;;;;;;;8.45;4.22;;;;;;;11.15;64.55;63143.03;5030062;28;20217;-77
2023/04/01 00:46:02;;;;;;;7.63;3.90;;;;;;;11.27;63.97;63158.00;5035212;28;20198;-77
2023/04/01 00:48:34;;;;;;;5.43;3.35;;;;;;;11.29;63.78;63167.22;5048605;28;20225;-76
2023/04/01 00:51:05;;;;;;;5.72;3.70;;;;;;;11.36;63.35;63171.91;5044454;28;20381;-77
2023/04/01 00:53:34;;;;;;;6.32;3.58;;;;;;;11.24;63.59;63157.47;5038963;28;20218;-75
2023/04/01 00:56:03;;;;;;;5.05;3.72;;;;;;;11.34;63.74;63169.84;5028113;28;20202;-76
2023/04/01 00:58:36;;;;;;;6.10;3.67;;;;;;;11.36;64.13;63174.97;5027385;28;20218;-77
2023/04/01 01:01:03;;;;;;;3.95;3.40;;;;;;;11.37;63.23;63170.41;5041446;28;20274;-76
2023/04/01 01:03:31;;;;;;;3.20;2.97;;;;;;;11.35;63.68;63170.88;5043114;28;20310;-76
2023/04/01 01:06:28;;;;;;;3.90;3.55;;;;;;;11.18;64.89;63153.28;5047022;28;20197;-77
2023/04/01 01:09:09;;;;;;;12.10;2.95;;;;;;;10.93;66.61;63124.84;5041120;28;20205;-76
2023/04/01 01:11:41;;;;;;;9.23;3.78;;;;;;;10.90;66.93;63121.72;5039422;28;20221;-76
2023/04/01 01:14:19;;;;;;;3.67;2.90;;;;;;;10.88;66.65;63120.19;5045779;28;20240;-77
2023/04/01 01:16:52;;;;;;;6.10;3.90;;;;;;;10.81;65.90;63115.47;5038213;28;20214;-77
2023/04/01 01:19:47;;;;;;;7.57;3.80;;;;;;;10.71;67.28;63102.59;5040002;28;20206;-76
2023/04/01 01:22:30;;;;;;;6.82;3.70;;;;;;;10.74;65.99;63108.22;5040635;28;20233;-77
2023/04/01 01:25:15;;;;;;;3.60;3.30;;;;;;;10.79;65.69;63115.97;5046309;28;20214;-76
2023/04/01 01:27:49;;;;;;;4.68;3.38;;;;;;;10.83;66.04;63114.47;5034244;28;20334;-76
2023/04/01 01:30:36;;;;;;;8.23;3.42;;;;;;;10.80;66.12;63111.38;5043412;28;20427;-76
2023/04/01 01:33:17;;;;;;;5.15;3.75;;;;;;;10.71;66.81;63105.13;5028027;28;20214;-76
2023/04/01 01:35:49;;;;;;;5.75;3.20;;;;;;;10.55;69.42;63086.03;5027293;28;20234;-76
2023/04/01 01:38:19;;;;;;;5.95;3.17;;;;;;;10.65;68.92;63096.38;5043810;28;20389;-77
2023/04/01 01:40:53;;;;;;;4.72;3.47;;;;;;;10.74;67.90;63105.16;5032960;28;20301;-76
2023/04/01 01:43:23;;;;;;;6.97;3.47;;;;;;;10.70;68.13;63101.53;5025960;28;20222;-77
2023/04/01 01:45:55;;;;;;;4.68;3.20;;;;;;;10.71;68.28;63102.59;5025971;28;20195;-76
2023/04/01 01:48:24;;;;;;;5.80;3.33;;;;;;;10.74;67.45;63102.63;5040393;28;20226;-76
2023/04/01 01:50:53;;;;;;;3.40;2.78;;;;;;;10.78;66.87;63111.84;5036264;28;20499;-76
2023/04/01 01:53:20;;;;;;;5.25;3.03;;;;;;;10.84;66.12;63116.03;5030622;28;20333;-76
2023/04/01 01:55:48;;;;;;;6.75;3.15;;;;;;;10.89;63.66;63121.22;5043663;28;20531;-75
2023/04/01 01:58:20;;;;;;;4.80;2.50;;;;;;;10.91;62.57;63122.75;5045131;28;20214;-75
2023/04/01 02:00:52;;;;;;;8.98;2.83;;;;;;;10.91;62.00;63120.75;5039996;28;20260;-76
2023/04/01 02:03:22;;;;;;;2.85;2.40;;;;;;;10.97;62.38;63131.53;5043927;28;20228;-77
2023/04/01 02:05:51;;;;;;;8.55;2.42;;;;;;;11.01;61.12;63133.13;5044104;28;20239;-76
2023/04/01 02:08:26;;;;;;;2.22;1.90;;;;;;;11.08;59.92;63140.38;5042001;28;20218;-77
2023/04/01 02:10:58;;;;;;;2.75;2.55;;;;;;;11.23;59.71;63161.00;5042941;28;20495;-76
2023/04/01 02:13:31;;;;;;;9.60;3.03;;;;;;;11.24;60.23;63162.03;5044425;28;20229;-76
2023/04/01 02:16:04;;;;;;;5.10;2.78;;;;;;;11.26;60.39;63162.09;5043667;28;20372;-76
2023/04/01 02:18:34;;;;;;;3.67;2.80;;;;;;;11.31;60.10;63164.19;5035571;28;20586;-77
2023/04/01 02:21:02;;;;;;;7.35;2.88;;;;;;;11.19;61.14;63149.75;5044549;28;20194;-77
2023/04/01 02:23:31;;;;;;;4.45;3.08;;;;;;;11.29;61.06;63160.09;5042669;28;20457;-77
2023/04/01 02:25:58;;;;;;;2.80;2.60;;;;;;;11.32;59.79;63165.75;5043166;28;20567;-77
2023/04/01 02:28:26;;;;;;;4.18;2.90;;;;;;;11.24;60.03;63157.47;5040690;28;20228;-77
2023/04/01 02:30:53;;;;;;;4.70;3.05;;;;;;;11.23;59.96;63155.91;5043974;28;20202;-75
2023/04/01 02:33:23;;;;;;;4.57;3.10;;;;;;;11.27;60.22;63157.50;5042525;28;20234;-76
2023/04/01 02:35:50;;;;;;;4.00;2.88;;;;;;;11.28;59.54;63163.63;5042117;28;20244;-77
2023/04/01 02:38:17;;;;;;;2.33;2.13;;;;;;;11.39;58.21;63169.91;5039439;28;20436;-76
2023/04/01 02:40:49;;;;;;;5.10;2.58;;;;;;;11.45;58.51;63181.75;5025054;28;20423;-77
2023/04/01 02:43:17;;;;;;;3.10;2.65;;;;;;;11.43;58.34;63182.25;5025301;28;20224;-76
2023/04/01 02:45:44;;;;;;;10.77;3.08;;;;;;;11.43;57.99;63179.69;5039422;28;20217;-75
2023/04/01 02:48:12;;;;;;;10.50;3.17;;;;;;;11.42;58.23;63175.59;5044571;28;20222;-76
2023/04/01 02:50:39;;;;;;;6.40;2.85;;;;;;;11.49;56.83;63185.38;5033284;28;20224;-77
2023/04/01 02:53:07;;;;;;;5.57;2.67;;;;;;;11.52;56.04;63185.94;5042848;28;20222;-77
2023/04/01 02:55:34;;;;;;;3.30;2.90;;;;;;;11.53;56.47;63187.50;5044620;28;20271;-76
2023/04/01 02:58:02;;;;;;;5.25;2.60;;;;;;;11.54;56.88;63190.56;5044104;28;20240;-76
2023/04/01 03:00:29;;;;;;;6.32;2.90;;;;;;;11.59;56.50;63195.75;5031079;28;20222;-78
2023/04/01 03:02:57;;;;;;;4.78;2.70;;;;;;;11.62;57.19;63196.31;5024753;28;20245;-76
2023/04/01 03:05:24;;;;;;;10.20;3.03;;;;;;;11.61;57.63;63195.28;5034208;28;20202;-76
2023/04/01 03:07:51;;;;;;;5.53;3.00;;;;;;;11.65;56.62;63198.91;5042382;28;20308;-77
2023/04/01 03:10:18;;;;;;;4.03;3.20;;;;;;;11.58;55.86;63192.66;5040875;28;20202;-77
2023/04/01 03:12:45;;;;;;;5.47;3.03;;;;;;;11.59;55.74;63196.28;5040182;28;20264;-76
2023/04/01 03:15:14;;;;;;;4.28;3.00;;;;;;;11.61;53.65;63192.72;5026013;28;20234;-76
2023/04/01 03:17:42;;;;;;;5.13;1.48;;;;;;;12.18;44.59;63251.78;5032352;28;20232;-77
2023/04/01 03:20:11;;;;;;;2.95;1.88;;;;;;;12.46;44.58;63285.41;5042114;28;20197;-77
2023/04/01 03:22:38;;;;;;;3.13;1.35;;;;;;;12.74;44.97;63312.41;5043083;28;20221;-76
2023/04/01 03:25:07;;;;;;;6.40;1.60;;;;;;;12.81;44.54;63321.69;5042836;28;20248;-76
2023/04/01 03:27:34;;;;;;;4.85;1.85;;;;;;;12.93;45.55;63329.03;5042245;28;20229;-77
2023/04/01 03:30:01;;;;;;;4.38;1.80;;;;;;;12.94;46.68;63334.66;5042453;28;20244;-76
2023/04/01 03:32:29;;;;;;;2.50;1.70;;;;;;;12.92;47.44;63330.03;5042618;28;20505;-77
2023/04/01 03:34:56;;;;;;;3.35;1.80;;;;;;;12.90;47.44;63325.41;5043781;28;20530;-77
2023/04/01 03:37:24;;;;;;;4.45;1.75;;;;;;;12.94;47.86;63332.13;5030241;28;20225;-77
2023/04/01 03:39:52;;;;;;;3.45;1.65;;;;;;;12.88;49.46;63323.31;5028400;28;20233;-77
2023/04/01 03:42:19;;;;;;;3.55;1.70;;;;;;;12.87;49.79;63327.41;5035623;28;20232;-77
2023/04/01 03:44:46;;;;;;;1.95;1.70;;;;;;;12.78;50.21;63319.13;5042678;28;20236;-76
2023/04/01 03:47:13;;;;;;;3.58;1.45;;;;;;;12.81;47.47;63321.69;5042974;28;20218;-76
2023/04/01 03:49:41;;;;;;;2.38;1.23;;;;;;;12.84;47.13;63321.75;5039079;28;20225;-77
2023/04/01 03:52:10;;;;;;;2.75;1.70;;;;;;;12.85;47.50;63327.88;5027510;28;20234;-77
2023/04/01 03:54:37;;;;;;;6.13;1.60;;;;;;;12.87;48.21;63325.38;5028666;28;20202;-77
2023/04/01 03:57:04;;;;;;;5.10;1.65;;;;;;;12.78;49.44;63319.13;5027923;28;20217;-78
2023/04/01 03:59:31;;;;;;;1.88;1.77;;;;;;;12.65;50.06;63307.66;5034993;28;20462;-78
2023/04/01 04:01:58;;;;;;;3.78;1.50;;;;;;;12.71;51.41;63313.88;5037338;28;20518;-77
2023/04/01 04:04:25;;;;;;;2.00;1.10;;;;;;;12.67;51.34;63304.63;5045673;28;20495;-76
2023/04/01 04:06:54;;;;;;;3.88;1.27;;;;;;;12.60;50.06;63299.91;5038843;28;20668;-76
2023/04/01 04:09:21;;;;;;;3.03;1.05;;;;;;;12.57;50.23;63292.22;5043086;28;20249;-75
2023/04/01 04:11:48;;;;;;;2.05;1.55;;;;;;;12.58;50.09;63295.81;5041213;28;20218;-76
2023/04/01 04:14:15;;;;;;;1.75;1.52;;;;;;;12.53;50.16;63292.66;5026913;28;20198;-76
2023/04/01 04:16:42;;;;;;;1.75;1.35;;;;;;;12.44;51.30;63288.97;5041140;28;20237;-78
2023/04/01 04:19:09;;;;;;;3.15;2.63;;;;;;;12.47;52.75;63286.97;5038445;28;20214;-79
2023/04/01 04:21:36;;;;;;;9.15;3.78;;;;;;;12.40;53.52;63279.72;5037742;28;20396;-77
2023/04/01 04:24:05;;;;;;;4.55;3.28;;;;;;;12.33;53.81;63269.38;5044651;28;20487;-76
2023/04/01 04:26:32;;;;;;;5.43;3.15;;;;;;;11.99;55.16;63232.13;5039677;28;20238;-76
2023/04/01 04:29:00;;;;;;;7.10;3.78;;;;;;;11.98;55.63;63236.16;5048425;28;20198;-78
2023/04/01 04:31:27;;;;;;;7.03;3.22;;;;;;;11.97;55.92;63234.63;5041086;28;20256;-78
2023/04/01 04:33:54;;;;;;;6.32;3.40;;;;;;;11.86;56.09;63220.66;5038995;28;20209;-78
2023/04/01 04:36:22;;;;;;;5.82;3.70;;;;;;;11.76;56.56;63210.31;5028477;28;20293;-76
2023/04/01 04:38:49;;;;;;;8.05;3.35;;;;;;;11.63;56.82;63192.75;5034939;28;20244;-76
2023/04/01 04:41:19;;;;;;;6.00;3.72;;;;;;;11.63;56.91;63194.78;5046325;28;20198;-77
2023/04/01 04:43:51;;;;;;;4.47;2.95;;;;;;;11.60;56.80;63194.75;5033548;28;20205;-76
2023/04/01 04:46:18;;;;;;;4.18;3.45;;;;;;;11.61;56.71;63198.31;5027397;28;20699;-76
2023/04/01 04:48:45;;;;;;;9.05;3.58;;;;;;;11.51;57.09;63187.97;5028125;28;20507;-77
2023/04/01 04:51:15;;;;;;;6.45;2.97;;;;;;;11.30;56.68;63166.22;5041432;28;20205;-77
2023/04/01 04:53:43;;;;;;;6.72;3.30;;;;;;;11.42;57.37;63178.13;5043427;28;20202;-77
2023/04/01 04:56:10;;;;;;;4.75;2.83;;;;;;;11.42;57.71;63173.53;5046673;28;20280;-77
2023/04/01 04:58:38;;;;;;;6.65;3.85;;;;;;;11.34;58.20;63167.81;5027332;28;20278;-77
2023/04/01 05:01:10;;;;;;;4.45;3.13;;;;;;;11.36;58.08;63169.88;5035079;28;20487;-77
2023/04/01 05:03:37;;;;;;;4.72;3.35;;;;;;;11.25;58.94;63155.94;5046931;28;20203;-77
2023/04/01 05:06:06;;;;;;;5.28;3.20;;;;;;;11.19;59.29;63154.84;5046515;28;20518;-76
2023/04/01 05:08:33;;;;;;;5.00;3.58;;;;;;;11.12;60.53;63147.59;5038509;28;20199;-77
2023/04/01 05:11:00;;;;;;;9.93;3.97;;;;;;;10.94;62.27;63128.94;5039914;28;20281;-78
2023/04/01 05:13:27;;;;;;;6.47;4.15;;;;;;;10.82;63.81;63111.41;5034413;28;20227;-76
2023/04/01 05:15:56;;;;;;;5.35;3.92;;;;;;;10.71;63.35;63102.59;5037811;28;20403;-76
2023/04/01 05:18:23;;;;;;;6.40;3.92;;;;;;;10.55;64.60;63082.94;5044729;28;20241;-77
2023/04/01 05:20:51;;;;;;;5.03;4.10;;;;;;;10.59;64.76;63090.16;5035057;28;20265;-77
2023/04/01 05:23:18;;;;;;;5.97;3.92;;;;;;;10.61;64.51;63096.81;5034021;28;20246;-77
2023/04/01 05:25:45;;;;;;;9.98;4.03;;;;;;;10.55;65.00;63085.50;5034413;28;20205;-78
2023/04/01 05:28:13;;;;;;;8.60;3.60;;;;;;;10.59;65.68;63092.72;5030963;28;20222;-78
2023/04/01 05:30:41;;;;;;;7.35;4.18;;;;;;;10.58;64.58;63091.66;5041548;28;20205;-76
2023/04/01 05:33:09;;;;;;;4.18;3.75;;;;;;;10.50;67.15;63080.84;5026156;28;20484;-78
2023/04/01 05:35:37;;;;;;;8.68;4.20;;;;;;;10.57;66.34;63085.53;5028453;28;20293;-75
2023/04/01 05:38:04;;;;;;;8.55;5.25;;;;;;;10.38;69.65;63068.44;5033354;28;20549;-77
2023/04/01 05:40:32;;;;;;;10.98;4.75;;;;;;;10.45;72.10;63078.22;5040627;28;20465;-76
2023/04/01 05:43:00;;;;;;;6.95;4.35;;;;;;;10.62;71.58;63093.28;5034546;28;20241;-76
2023/04/01 05:45:28;;;;;;;5.18;4.65;;;;;;;10.80;70.85;63117.00;5032385;28;20207;-80
2023/04/01 05:47:55;;;;;;;5.57;3.75;;;;;;;10.99;69.83;63133.59;5030463;28;20226;-78
2023/04/01 05:50:23;;;;;;;8.18;4.72;;;;;;;11.18;68.90;63148.19;5041796;28;20198;-75
2023/04/01 05:52:50;;;;;;;7.25;4.22;;;;;;;11.33;67.22;63163.72;5029515;28;20226;-76
2023/04/01 05:55:18;;;;;;;13.20;5.00;;;;;;;11.51;66.00;63185.41;5032795;28;20301;-77
2023/04/01 05:57:48;;;;;;;7.68;4.68;;;;;;;11.43;64.85;63172.03;5035720;28;20519;-77
2023/04/01 06:00:16;;;;;;;16.48;5.47;;;;;;;11.40;67.55;63174.03;5034327;28;20206;-78
2023/04/01 06:02:43;;;;;;;8.98;5.55;;;;;;;11.31;68.74;63161.63;5029634;28;20546;-76
2023/04/01 06:05:18;;;;;;;7.38;5.40;;;;;;;11.58;67.38;63194.69;5028564;28;20206;-78
2023/04/01 06:07:46;;;;;;;10.05;5.10;;;;;;;11.84;63.72;63218.59;5031607;28;20221;-79
2023/04/01 06:10:16;;;;;;;7.78;5.22;;;;;;;11.77;63.06;63211.34;5033904;28;20402;-76
2023/04/01 06:12:53;;;;;;;10.80;5.00;;;;;;;11.98;62.78;63236.16;5028776;28;20218;-78
2023/04/01 06:15:30;;;;;;;12.90;5.28;;;;;;;12.32;60.88;63268.84;5038747;28;20362;-77
2023/04/01 06:18:30;;;;;;;12.48;4.68;;;;;;;12.33;59.43;63266.81;5028267;28;20262;-77
2023/04/01 06:21:09;;;;;;;5.53;4.68;;;;;;;12.59;58.64;63294.31;4995632;28;20220;-77
2023/04/01 06:23:53;;;;;;;11.45;5.50;;;;;;;12.86;58.19;63323.81;5028277;28;20203;-78
2023/04/01 06:26:28;;;;;;;8.00;4.65;;;;;;;12.31;57.71;63267.31;5029498;28;20199;-77
2023/04/01 06:29:10;;;;;;;5.28;3.95;;;;;;;12.35;57.76;63277.09;5030310;28;20197;-77
2023/04/01 06:31:57;;;;;;;6.50;4.20;;;;;;;12.58;56.98;63300.41;5044999;28;20233;-76
2023/04/01 06:34:53;;;;;;;5.63;4.03;;;;;;;12.64;56.36;63302.03;5025546;28;20263;-77
2023/04/01 06:37:38;;;;;;;13.65;5.70;;;;;;;12.61;56.70;63301.47;5032825;28;20246;-77
2023/04/01 06:40:21;;;;;;;12.73;3.28;;;;;;;12.80;56.23;63321.19;5029285;28;20207;-77
2023/04/01 06:43:10;;;;;;;8.50;3.92;;;;;;;13.11;55.64;63352.31;5025322;28;20241;-76
2023/04/01 06:45:45;;;;;;;7.82;4.38;;;;;;;13.44;53.70;63384.00;5029078;28;20513;-76
2023/04/01 06:48:24;;;;;;;8.88;4.38;;;;;;;13.68;53.23;63408.91;5034366;28;20230;-78
2023/04/01 06:51:03;;;;;;;6.40;4.25;;;;;;;13.60;53.23;63403.69;5026375;28;20209;-78
2023/04/01 06:53:39;;;;;;;13.25;4.20;;;;;;;13.36;53.83;63375.69;5025227;28;20226;-78
2023/04/01 06:56:11;;;;;;;7.78;4.70;;;;;;;13.48;53.00;63390.69;5036117;28;20555;-79
2023/04/01 06:58:43;;;;;;;8.70;4.43;;;;;;;13.38;53.43;63383.41;5037162;28;20225;-79
2023/04/01 07:01:15;;;;;;;10.18;5.03;;;;;;;13.28;53.76;63372.50;5026499;28;20201;-76
2023/04/01 07:03:46;;;;;;;7.65;4.20;;;;;;;13.12;55.28;63355.91;5027454;28;20209;-76
2023/04/01 07:06:21;;;;;;;5.70;4.38;;;;;;;12.85;55.88;63323.31;5039105;28;20209;-77
2023/04/01 07:08:50;;;;;;;8.18;4.57;;;;;;;12.50;57.55;63292.09;5043020;28;20208;-79
2023/04/01 07:11:27;;;;;;;4.30;3.80;;;;;;;12.75;58.34;63316.00;5044395;28;20278;-77
2023/04/01 07:13:58;;;;;;;8.55;4.72;;;;;;;12.84;57.70;63324.31;5033206;28;20237;-78
2023/04/01 07:16:30;;;;;;;12.88;4.97;;;;;;;12.62;58.38;63296.88;5044020;28;20230;-79
2023/04/01 07:19:02;;;;;;;9.80;5.03;;;;;;;12.91;58.01;63329.50;5046415;28;20213;-77
2023/04/01 07:21:36;;;;;;;11.43;5.55;;;;;;;12.72;58.72;63312.88;5036338;28;20223;-78
2023/04/01 07:24:10;;;;;;;7.50;5.25;;;;;;;12.77;57.94;63315.00;5040476;28;20503;-77
2023/04/01 07:26:38;;;;;;;7.35;5.15;;;;;;;13.02;57.00;63337.88;5043232;28;20210;-76
2023/04/01 07:29:11;;;;;;;6.88;5.38;;;;;;;13.05;56.66;63351.72;5045001;28;20222;-77
2023/04/01 07:32:04;;;;;;;8.57;4.93;;;;;;;12.85;58.04;63325.84;5042896;28;20409;-77
2023/04/01 07:34:37;;;;;;;9.80;5.20;;;;;;;13.12;57.60;63350.78;5025518;28;20302;-77
2023/04/01 07:37:12;;;;;;;12.18;5.25;;;;;;;13.20;58.14;63359.63;5024747;28;20233;-78
2023/04/01 07:39:51;;;;;;;8.88;5.53;;;;;;;13.57;57.65;63403.13;5030980;28;20222;-78
2023/04/01 07:42:28;;;;;;;9.55;5.40;;;;;;;13.65;56.05;63406.31;5043539;28;20244;-77
2023/04/01 07:45:06;;;;;;;11.32;5.57;;;;;;;13.26;57.58;63368.41;5048981;28;20212;-77
2023/04/01 07:47:50;;;;;;;12.43;5.45;;;;;;;13.34;57.66;63376.69;5033815;28;20226;-79
2023/04/01 07:50:26;;;;;;;7.65;4.53;;;;;;;13.65;56.75;63406.31;5041723;28;20556;-79
2023/04/01 07:53:03;;;;;;;5.43;4.82;;;;;;;13.59;57.16;63397.00;5037373;28;20593;-78
2023/04/01 07:55:34;;;;;;;4.18;3.75;;;;;;;13.63;57.50;63406.28;5038377;28;20197;-79
2023/04/01 07:58:09;;;;;;;5.45;4.22;;;;;;;13.70;57.16;63414.06;5042286;28;20242;-77
2023/04/01 08:00:44;;;;;;;6.28;4.68;;;;;;;13.18;58.40;63355.00;5042301;28;20201;-78
2023/04/01 08:03:26;;;;;;;10.90;4.63;;;;;;;13.09;59.91;63350.25;5038552;28;20310;-77
2023/04/01 08:05:58;;;;;;;7.78;5.32;;;;;;;13.16;59.39;63360.06;5046506;28;20210;-77
2023/04/01 08:08:37;;;;;;;10.68;4.95;;;;;;;13.26;59.19;63362.75;5041049;28;20233;-77
2023/04/01 08:11:14;;;;;;;7.25;4.55;;;;;;;12.77;61.15;63312.97;5042653;28;21073;-79
2023/04/01 08:13:52;;;;;;;12.73;4.68;;;;;;;12.79;62.52;63319.63;5050774;28;20197;-78
2023/04/01 08:16:24;;;;;;;5.38;4.07;;;;;;;12.90;62.55;63327.97;5050136;28;20287;-80
2023/04/01 08:18:58;;;;;;;7.70;4.43;;;;;;;13.05;62.72;63343.53;5048864;28;20213;-78
2023/04/01 08:21:29;;;;;;;9.85;4.00;;;;;;;13.27;61.65;63369.44;5045525;28;20204;-78
2023/04/01 08:23:58;;;;;;;9.68;4.30;;;;;;;13.48;61.46;63388.66;5047891;28;20393;-79
2023/04/01 08:26:34;;;;;;;5.40;3.60;;;;;;;13.88;61.27;63432.22;5049882;28;20541;-78
2023/04/01 08:29:07;;;;;;;8.63;4.60;;;;;;;14.42;59.18;63490.34;5045347;28;20206;-79
2023/04/01 08:31:38;;;;;;;5.90;4.00;;;;;;;14.48;58.13;63496.59;5030150;28;20250;-79
2023/04/01 08:34:13;;;;;;;7.70;4.18;;;;;;;14.69;56.81;63513.78;5034627;28;20194;-79
2023/04/01 08:36:47;;;;;;;8.02;4.45;;;;;;;14.74;56.80;63518.47;5050478;28;20228;-78
2023/04/01 08:39:19;;;;;;;7.35;4.28;;;;;;;14.98;56.81;63545.97;5050123;28;20397;-79
2023/04/01 08:42:05;;;;;;;10.23;5.82;;;;;;;15.44;54.70;63590.72;5047015;28;20224;-77
2023/04/01 08:44:48;;;;;;;11.13;4.22;;;;;;;15.24;54.63;63569.91;5048568;28;20284;-79
2023/04/01 08:47:27;;;;;;;5.85;4.13;;;;;;;14.87;54.66;63532.50;5030115;28;20215;-78
2023/04/01 08:50:21;;;;;;;4.57;4.00;;;;;;;14.83;55.09;63530.91;5029339;28;20225;-78
2023/04/01 08:52:53;;;;;;;4.82;4.25;;;;;;;14.91;54.79;63536.66;5028362;28;20219;-78
2023/04/01 08:55:38;;;;;;;7.38;3.85;;;;;;;15.21;54.81;63564.22;5033209;28;20202;-78
2023/04/01 08:58:28;;;;;;;9.95;4.38;;;;;;;15.23;53.29;63566.28;5045241;28;20260;-79
2023/04/01 09:01:17;;;;;;;4.80;3.38;;;;;;;15.42;52.42;63586.59;5050741;28;20197;-78
2023/04/01 09:04:04;;;;;;;5.72;3.72;;;;;;;15.95;50.87;63644.25;5037586;28;20549;-78
2023/04/01 09:06:46;;;;;;;5.78;1.95;;;;;;;16.67;40.44;63723.78;5041839;28;20260;-78
2023/04/01 09:09:40;;;;;;;5.13;2.45;;;;;;;17.27;43.73;63783.66;5030902;28;20298;-77
2023/04/01 09:12:31;;;;;;;8.02;3.90;;;;;;;17.45;45.54;63798.78;5034102;28;20247;-78
2023/04/01 09:15:21;;;;;;;4.53;2.60;;;;;;;17.63;44.30;63817.53;5047900;28;20501;-78
2023/04/01 09:18:32;;;;;;;6.85;2.95;;;;;;;18.18;41.17;63877.94;5034537;28;20244;-77
2023/04/01 09:21:13;;;;;;;2.75;1.50;;;;;;;18.32;34.51;63889.41;5024519;28;20225;-78
2023/04/01 09:24:15;;;;;;;1.52;0.80;;;;;;;18.77;34.38;63935.78;5038421;28;20273;-78
2023/04/01 09:26:59;;;;;;;1.50;1.27;;;;;;;19.06;32.65;63966.56;5045374;28;20236;-78
2023/04/01 09:30:06;;;;;;;4.35;2.00;;;;;;;19.17;36.98;63980.59;5029173;28;20208;-78
2023/04/01 09:33:10;;;;;;;9.65;3.67;;;;;;;18.91;41.28;63950.91;4963249;29;20232;-78
2023/04/01 09:35:47;;;;;;;8.07;2.80;;;;;;;18.69;39.57;63933.13;5049034;28;20197;-78
2023/04/01 09:38:23;;;;;;;7.50;2.85;;;;;;;19.16;38.07;63976.44;5046888;28;20514;-79
2023/04/01 09:40:56;;;;;;;7.95;3.05;;;;;;;18.85;39.29;63944.66;5041267;28;20198;-77
2023/04/01 09:43:49;;;;;;;5.72;3.78;;;;;;;18.20;41.29;63880.00;5035979;28;20573;-79
2023/04/01 09:46:27;;;;;;;6.93;3.92;;;;;;;18.04;42.24;63862.81;5036625;28;20205;-78
2023/04/01 09:49:42;;;;;;;8.55;3.60;;;;;;;17.98;41.93;63859.16;5033390;28;20375;-77
2023/04/01 09:52:25;;;;;;;5.72;3.13;;;;;;;18.11;40.50;63868.06;4977694;28;20227;-79
2023/04/01 09:55:07;;;;;;;5.90;3.08;;;;;;;18.63;41.38;63926.88;5046795;28;20265;-79
2023/04/01 09:57:51;;;;;;;3.40;2.80;;;;;;;18.92;41.35;63951.44;5038923;28;20522;-78
2023/04/01 10:00:40;;;;;;;8.63;2.33;;;;;;;18.99;35.42;63964.41;5044597;28;20486;-78
2023/04/01 10:03:46;;;;;;;6.97;1.92;;;;;;;19.18;35.96;63981.66;5040504;28;20238;-78
2023/04/01 10:06:48;;;;;;;4.00;1.90;;;;;;;18.99;35.62;63961.84;5031554;28;20227;-77
2023/04/01 10:09:48;;;;;;;4.43;2.58;;;;;;;19.32;36.09;63991.09;5044841;28;20482;-76
2023/04/01 10:12:54;;;;;;;2.50;2.30;;;;;;;19.31;37.16;63995.22;5032448;28;20214;-79
2023/04/01 10:15:55;;;;;;;5.03;2.28;;;;;;;18.90;39.22;63952.44;5036431;28;20202;-78
2023/04/01 10:19:04;;;;;;;3.13;2.83;;;;;;;19.12;36.42;63972.28;5044826;28;20259;-79
2023/04/01 10:22:04;;;;;;;3.72;3.00;;;;;;;19.25;39.96;63988.41;5037812;28;20271;-79
2023/04/01 10:25:29;;;;;;;3.22;2.95;;;;;;;19.12;40.69;63972.28;5015320;28;20414;-79
2023/04/01 10:28:25;;;;;;;3.97;1.95;;;;;;;19.49;33.46;64014.00;4975991;28;20272;-78
2023/04/01 10:31:28;;;;;;;3.50;1.63;;;;;;;19.71;33.17;64035.91;4973597;28;20727;-78
2023/04/01 10:34:19;;;;;;;7.53;2.58;;;;;;;19.69;36.76;64034.31;5033085;28;20204;-77
2023/04/01 10:36:53;;;;;;;10.20;1.80;;;;;;;19.57;34.57;64021.28;5029853;28;20230;-78
2023/04/01 10:39:39;;;;;;;5.13;1.77;;;;;;;19.30;34.10;63996.75;5039926;28;20228;-77
2023/04/01 10:43:00;;;;;;;3.08;1.98;;;;;;;19.57;33.60;64021.81;5039489;28;20244;-77
2023/04/01 10:45:49;;;;;;;2.08;1.50;;;;;;;19.71;32.79;64033.31;5042636;28;20227;-80
2023/04/01 10:48:30;;;;;;;4.30;1.73;;;;;;;19.49;33.07;64011.41;5045486;28;20220;-77
2023/04/01 10:51:20;;;;;;;2.63;1.42;;;;;;;19.64;33.02;64026.50;5044201;28;20190;-77
2023/04/01 10:54:02;;;;;;;5.25;2.25;;;;;;;19.42;32.48;64001.53;5044718;28;20207;-78
2023/04/01 10:56:48;;;;;;;6.13;1.67;;;;;;;19.22;32.66;63985.28;5043227;28;20565;-78
2023/04/01 10:59:47;;;;;;;1.88;1.77;;;;;;;19.30;33.15;63991.06;5036102;28;20482;-78
2023/04/01 11:02:49;;;;;;;2.15;2.03;;;;;;;19.10;34.17;63970.19;5042455;28;20225;-78
2023/04/01 11:05:57;;;;;;;2.70;1.60;;;;;;;18.72;34.61;63933.16;5025712;28;20267;-77
2023/04/01 11:09:12;;;;;;;3.35;1.20;;;;;;;18.81;34.82;63943.06;5032416;28;20259;-77
2023/04/01 11:12:10;;;;;;;2.78;2.03;;;;;;;18.88;34.71;63950.34;5027219;28;20497;-79
2023/04/01 11:15:12;;;;;;;4.43;1.60;;;;;;;18.65;35.34;63934.13;5046015;28;20528;-78
2023/04/01 11:18:52;;;;;;;1.42;1.30;;;;;;;18.39;35.79;63902.38;5035279;28;20300;-77
2023/04/01 11:21:59;;;;;;;6.07;2.03;;;;;;;18.29;36.26;63889.38;5026739;28;20197;-76
2023/04/01 11:24:57;;;;;;;5.22;1.75;;;;;;;18.21;38.00;63883.09;5025536;28;20281;-79
2023/04/01 11:27:43;;;;;;;2.25;1.50;;;;;;;17.94;38.41;63849.81;5038579;28;20241;-76
2023/04/01 11:30:26;;;;;;;4.57;2.00;;;;;;;17.55;39.03;63814.88;5046339;28;20239;-77
2023/04/01 11:32:59;;;;;;;3.08;1.65;;;;;;;17.30;39.52;63786.25;5045026;28;20225;-76
2023/04/01 11:35:56;;;;;;;1.52;1.42;;;;;;;17.19;39.76;63770.19;5040927;28;20194;-79
2023/04/01 11:38:56;;;;;;;4.63;1.52;;;;;;;17.10;40.19;63757.72;5048891;28;20272;-79
2023/04/01 11:41:32;;;;;;;7.75;2.63;;;;;;;16.55;46.92;63708.22;5045198;28;20197;-78
2023/04/01 11:44:17;;;;;;;4.80;2.10;;;;;;;15.72;51.10;63625.47;5046668;28;20217;-77
2023/04/01 11:47:01;;;;;;;1.73;1.60;;;;;;;14.87;66.50;63535.06;5045854;28;20624;-78
2023/04/01 11:49:50;;;;;;;3.63;1.83;;;;;;;14.11;72.23;63453.03;5045420;28;20197;-76
2023/04/01 11:52:38;;;;;;;2.47;1.92;;;;;;;13.34;87.91;63373.63;5042755;28;20230;-75
2023/04/01 11:55:22;;;;;;;1.77;1.67;;;;;;;12.97;93.87;63340.34;5031912;28;20206;-75
2023/04/01 11:58:09;;;;;;;10.05;2.55;;;;;;;12.50;100.00;63284.44;5042552;28;20238;-75
2023/04/01 12:00:54;;;;;;;2.40;2.20;;;;;;;12.10;100.00;63243.50;5044837;28;20493;-77
2023/04/01 12:03:48;;;;;;;4.15;2.00;;;;;;;11.30;100.00;63163.16;5043639;28;20883;-78
2023/04/01 12:06:20;;;;;;;5.55;2.03;;;;;;;10.69;100.00;63103.06;5048479;28;20190;-80
2023/04/01 12:08:56;;;;;;;3.22;2.08;;;;;;;10.33;100.00;63065.81;5047081;28;20194;-78
2023/04/01 12:11:34;;;;;;;6.63;2.55;;;;;;;10.34;100.00;63067.34;5040224;28;20213;-82
2023/04/01 12:14:10;;;;;;;5.28;1.92;;;;;;;10.30;100.00;63060.16;5044202;28;20381;-83
2023/04/01 12:16:55;;;;;;;5.03;2.20;;;;;;;10.33;100.00;63063.25;5048062;28;20744;-82